Terminal Aerodrome Forecast
Issued by NWS

Home | Current Version | Previous Version | Text Only | Print | Product List | Glossary Off
Versions: 1 2 3 4 5 6 7 8 9 10 11 12 13 14 15 16 17

000
FTUS43 KGRB 172300
TAFCWA
TAF
KCWA 172334Z 1800/1824 27008KT P6SM SCT060
     FM180200 04008KT P6SM BKN040
     FM180600 07006KT P6SM SCT020
     FM181600 11006KT P6SM BKN025
     FM181800 12005KT P6SM SCT030 BKN050
      AMD LTD TO CLD VIS AND WIND 1803/1811=

USA.gov is the U.S. government's official web portal to all federal, state and local government web resources and services.